»·PEaware :: SWA2202 KSJC-KLAS

SWA2202 :: KSJC-KLAS

FLIGHT INFORMATION

Flight Status: Arrived
Operator:
Southwest Airlines
More flights by this operator :: More flights under this callsign
Pilot: Daniel W. (24238)
Aircraft: BOEING 737-700
(B737)
More flights by this aircraft type
Origin: KSJC Mineta San Jose Intl
United States
Destination: KLAS McCarran Intl
United States
More flights between these airports :: More routes between these airports
Route: TECKY3 TECKY NTELL Q162 ESSAA BTY SUNST4
File this flight plan on PilotEdge
Remarks: PBN / A1D1O1S2T1 NAV / RNVD1E1A1 RNP10 DOF / 190710 REG / N221WN EET / KZLA0036 CODE / A1E6B9 PER / C
Altitude:
(Current/Filed)
33,000ft
Speed:
(Current/Filed)
431kts
Departed: 10-Jul-19 07:50 AM
Arrived: 10-Jul-19 09:02 AM
Distance/Time
Traveled:
335nm/1:12
Distance/Time
To Go:
Arrived

Flight Plot

Page will automatically refresh every two minutes.

Flight plan parsing failed; only flown route is shown


Map Options




Map Legend


Flown Route
Filed Route
Departure Airport
Arrival Airport
Navaid (VOR, NDB)
Fix

Horizontal Profiles

Position Reports

Time Latitude Longitude Heading Altitude Ground
Speed
10-Jul-19 07:19 37.364601 -121.925019 48 70ft 0kts
10-Jul-19 07:20 37.364601 -121.925019 48 70ft 0kts
10-Jul-19 07:21 37.364601 -121.925019 48 70ft 0kts
10-Jul-19 07:22 37.364601 -121.925019 48 70ft 0kts
10-Jul-19 07:23 37.364601 -121.925019 48 70ft 0kts
10-Jul-19 07:24 37.364601 -121.925019 48 70ft 0kts
10-Jul-19 07:25 37.364601 -121.925019 48 70ft 0kts
10-Jul-19 07:26 37.364601 -121.925019 48 70ft 0kts
10-Jul-19 07:27 37.364601 -121.925019 48 70ft 0kts
10-Jul-19 07:28 37.364601 -121.925019 48 70ft 0kts
10-Jul-19 07:29 37.364601 -121.925019 48 70ft 0kts
10-Jul-19 07:30 37.364601 -121.925019 48 70ft 0kts
10-Jul-19 07:31 37.364601 -121.925019 48 70ft 0kts
10-Jul-19 07:32 37.364601 -121.925019 48 70ft 0kts
10-Jul-19 07:33 37.364601 -121.925019 48 70ft 0kts
10-Jul-19 07:34 37.364601 -121.925019 48 70ft 0kts
10-Jul-19 07:35 37.364601 -121.925019 48 70ft 0kts
10-Jul-19 07:36 37.364601 -121.925019 48 70ft 0kts
10-Jul-19 07:37 37.364601 -121.925019 48 70ft 0kts
10-Jul-19 07:38 37.364601 -121.925019 48 70ft 0kts
10-Jul-19 07:39 37.364601 -121.925019 48 70ft 0kts
10-Jul-19 07:40 37.364601 -121.925019 48 70ft 0kts
10-Jul-19 07:41 37.364601 -121.925019 48 70ft 0kts
10-Jul-19 07:42 37.364375 -121.925419 66 70ft 2kts
10-Jul-19 07:43 37.364488 -121.926088 138 70ft 2kts
10-Jul-19 07:44 37.364518 -121.926120 138 69ft 0kts
10-Jul-19 07:45 37.364448 -121.926044 139 70ft 7kts
10-Jul-19 07:46 37.360246 -121.921438 138 69ft 22kts
10-Jul-19 07:47 37.355803 -121.916553 139 69ft 21kts
10-Jul-19 07:48 37.352511 -121.915253 233 69ft 13kts
10-Jul-19 07:49 37.363560 -121.927638 319 73ft 146kts
10-Jul-19 07:50 37.399001 -121.965208 328 2146ft 182kts
10-Jul-19 07:51 37.433642 -121.928210 102 4268ft 224kts
10-Jul-19 07:52 37.386846 -121.862447 142 5024ft 276kts
10-Jul-19 07:53 37.332097 -121.792956 133 7339ft 282kts
10-Jul-19 07:54 37.273133 -121.724060 139 11124ft 300kts
10-Jul-19 07:55 37.203583 -121.645857 140 13285ft 359kts
10-Jul-19 07:56 37.127371 -121.560028 140 16290ft 377kts
10-Jul-19 07:57 37.062908 -121.454619 107 19021ft 404kts
10-Jul-19 07:58 37.046370 -121.312171 98 21488ft 422kts
10-Jul-19 07:59 37.031957 -121.163323 98 23639ft 437kts
10-Jul-19 08:00 37.016879 -121.010375 98 25626ft 448kts
10-Jul-19 08:01 37.001397 -120.853709 98 27379ft 458kts
10-Jul-19 08:02 36.985119 -120.693584 98 28922ft 468kts
10-Jul-19 08:04 36.968424 -120.532158 98 30680ft 467kts
10-Jul-19 08:05 36.951641 -120.372133 98 32564ft 462kts
10-Jul-19 08:06 36.934867 -120.212016 97 33136ft 462kts
10-Jul-19 08:07 36.917814 -120.054180 98 33141ft 460kts
10-Jul-19 08:08 36.906624 -119.895495 83 33142ft 458kts
10-Jul-19 08:09 36.946924 -119.744896 67 33144ft 458kts
10-Jul-19 08:10 36.995097 -119.596859 68 33153ft 459kts
10-Jul-19 08:11 37.043215 -119.448734 68 33169ft 459kts
10-Jul-19 08:12 37.091311 -119.300724 68 33200ft 459kts
10-Jul-19 08:13 37.139056 -119.152374 68 33244ft 459kts
10-Jul-19 08:14 37.186694 -119.004254 68 33298ft 458kts
10-Jul-19 08:15 37.233840 -118.855681 68 33348ft 458kts
10-Jul-19 08:16 37.276517 -118.705528 78 33334ft 458kts
10-Jul-19 08:17 37.292724 -118.546689 84 33298ft 457kts
10-Jul-19 08:18 37.306792 -118.388381 84 33263ft 457kts
10-Jul-19 08:19 37.321365 -118.229399 83 33249ft 457kts
10-Jul-19 08:20 37.335543 -118.070473 84 33250ft 457kts
10-Jul-19 08:21 37.348522 -117.911860 88 33252ft 456kts
10-Jul-19 08:22 37.338449 -117.753367 97 33258ft 455kts
10-Jul-19 08:23 37.324472 -117.595526 97 33265ft 454kts
10-Jul-19 08:23 37.312430 -117.463957 97 33270ft 454kts
10-Jul-19 08:25 37.279796 -117.285880 120 33274ft 452kts
10-Jul-19 08:25 37.218799 -117.179349 127 33269ft 451kts
10-Jul-19 08:27 37.129625 -117.033481 127 33265ft 451kts
10-Jul-19 08:27 37.061525 -116.935092 140 33254ft 449kts
10-Jul-19 08:28 36.954685 -116.854023 151 33240ft 449kts
10-Jul-19 08:30 36.827588 -116.765209 146 33225ft 449kts
10-Jul-19 08:30 36.751108 -116.677740 131 32539ft 445kts
10-Jul-19 08:31 36.669919 -116.561753 131 29806ft 438kts
10-Jul-19 08:32 36.591047 -116.449101 132 27397ft 425kts
10-Jul-19 08:33 36.514152 -116.340395 132 25030ft 414kts
10-Jul-19 08:34 36.438766 -116.234171 132 22696ft 404kts
10-Jul-19 08:35 36.365260 -116.130546 132 20394ft 397kts
10-Jul-19 08:36 36.292781 -116.028981 132 18109ft 384kts
10-Jul-19 08:37 36.225427 -115.934984 132 16319ft 339kts
10-Jul-19 08:38 36.181151 -115.840532 113 15475ft 314kts
10-Jul-19 08:39 36.148953 -115.739400 113 14513ft 314kts
10-Jul-19 08:40 36.117080 -115.640685 113 13559ft 306kts
10-Jul-19 08:41 36.085703 -115.543220 114 12613ft 302kts
10-Jul-19 08:42 36.054461 -115.447202 114 11706ft 298kts
10-Jul-19 08:43 36.029114 -115.354247 99 10751ft 276kts
10-Jul-19 08:44 36.022688 -115.260779 96 9689ft 271kts
10-Jul-19 08:45 36.016280 -115.168814 96 8734ft 267kts
10-Jul-19 08:46 36.010243 -115.079861 95 8022ft 246kts
10-Jul-19 08:47 36.005416 -114.997239 95 8020ft 242kts
10-Jul-19 08:48 36.000361 -114.913912 95 8011ft 242kts
10-Jul-19 08:49 35.995317 -114.830942 95 8008ft 242kts
10-Jul-19 08:50 35.989934 -114.748079 95 7994ft 242kts
10-Jul-19 08:51 35.984366 -114.664975 95 7994ft 242kts
10-Jul-19 08:52 36.014541 -114.602885 15 7988ft 234kts
10-Jul-19 08:53 36.067413 -114.632825 283 7996ft 236kts
10-Jul-19 08:54 36.072279 -114.712340 272 7111ft 231kts
10-Jul-19 08:55 36.073812 -114.790731 269 5531ft 225kts
10-Jul-19 08:56 36.073885 -114.867282 269 4990ft 223kts
10-Jul-19 08:57 36.073830 -114.941215 269 4993ft 192kts
10-Jul-19 08:58 36.073256 -115.000640 269 4186ft 161kts
10-Jul-19 08:59 36.073691 -115.054955 269 3259ft 155kts
10-Jul-19 09:00 36.073604 -115.108644 270 2468ft 157kts
10-Jul-19 09:01 36.074246 -115.144847 300 2189ft 22kts
10-Jul-19 09:02 36.077618 -115.146748 328 2189ft 13kts
10-Jul-19 09:03 36.081013 -115.150105 270 2189ft 15kts
10-Jul-19 09:04 36.082408 -115.151464 44 2189ft 3kts
10-Jul-19 09:05 36.082433 -115.151433 44 2189ft 0kts
10-Jul-19 09:06 36.082433 -115.151433 44 2189ft 0kts
10-Jul-19 09:07 36.082433 -115.151433 44 2189ft 0kts
10-Jul-19 09:08 36.082433 -115.151433 44 2189ft 0kts
10-Jul-19 09:09 36.082433 -115.151433 44 2189ft 0kts
10-Jul-19 09:10 36.082433 -115.151433 44 2189ft 0kts
10-Jul-19 09:11 36.082433 -115.151433 44 2189ft 0kts
10-Jul-19 09:12 36.082433 -115.151433 44 2189ft 0kts

Navigation Log

Ident Type
Flight plan parsing failed, navigation log unavailable